createdAt,value
2022-07-30T00:00:39.713Z,20.15
2022-07-30T00:03:08.341Z,20.17
2022-07-30T00:05:36.912Z,20.20
2022-07-30T00:08:05.651Z,20.22
2022-07-30T00:10:34.195Z,20.22
2022-07-30T00:13:02.640Z,20.26
2022-07-30T00:15:32.613Z,20.27
2022-07-30T00:18:01.091Z,20.26
2022-07-30T00:20:29.838Z,20.31
2022-07-30T00:23:04.018Z,20.28
2022-07-30T00:25:33.901Z,20.23
2022-07-30T00:28:02.523Z,20.21
2022-07-30T00:30:32.674Z,20.18
2022-07-30T00:33:01.668Z,20.10
2022-07-30T00:35:30.195Z,20.04
2022-07-30T00:37:58.688Z,20.05
2022-07-30T00:40:27.408Z,20.09
2022-07-30T00:42:56.046Z,20.08
2022-07-30T00:45:24.526Z,20.08
2022-07-30T00:47:54.435Z,20.07
2022-07-30T00:50:22.924Z,20.03
2022-07-30T00:52:52.484Z,20.01
2022-07-30T00:55:21.018Z,20.01
2022-07-30T00:57:49.548Z,20.01
2022-07-30T01:00:19.983Z,20.01
2022-07-30T01:02:48.564Z,20.00
2022-07-30T01:05:18.605Z,19.95
2022-07-30T01:07:47.757Z,19.91
2022-07-30T01:10:17.295Z,19.88
2022-07-30T01:12:48.067Z,19.89
2022-07-30T01:15:17.208Z,19.86
2022-07-30T01:17:49.135Z,19.85
2022-07-30T01:20:26.937Z,19.86
2022-07-30T01:23:03.576Z,19.85
2022-07-30T01:25:56.714Z,19.88
2022-07-30T01:28:28.839Z,19.87
2022-07-30T01:30:59.156Z,19.86
2022-07-30T01:33:28.939Z,19.86
2022-07-30T01:35:59.375Z,19.84
2022-07-30T01:38:31.081Z,19.79
2022-07-30T01:41:07.598Z,19.74
2022-07-30T01:43:37.072Z,19.74
2022-07-30T01:46:07.094Z,19.67
2022-07-30T01:48:40.614Z,19.67
2022-07-30T01:51:11.236Z,19.71
2022-07-30T01:53:42.147Z,19.71
2022-07-30T01:56:16.903Z,19.73
2022-07-30T01:58:51.734Z,19.73
2022-07-30T02:01:20.367Z,19.74
2022-07-30T02:03:49.107Z,19.73
2022-07-30T02:06:22.797Z,19.71
2022-07-30T02:08:55.619Z,19.72
2022-07-30T02:11:39.543Z,19.73
2022-07-30T02:14:22.089Z,19.72
2022-07-30T02:16:54.251Z,19.74
2022-07-30T02:19:26.346Z,19.76
2022-07-30T02:22:06.822Z,19.73
2022-07-30T02:24:39.679Z,19.73
2022-07-30T02:27:16.099Z,19.73
2022-07-30T02:29:47.134Z,19.71
2022-07-30T02:32:20.148Z,19.65
2022-07-30T02:34:53.380Z,19.57
2022-07-30T02:37:41.139Z,19.53
2022-07-30T02:40:16.704Z,19.52
2022-07-30T02:42:50.397Z,19.53
2022-07-30T02:45:19.536Z,19.55
2022-07-30T02:47:52.599Z,19.52
2022-07-30T02:50:22.349Z,19.50
2022-07-30T02:52:52.363Z,19.47
2022-07-30T02:55:22.784Z,19.46
2022-07-30T02:57:54.902Z,19.48
2022-07-30T03:00:25.364Z,19.50
2022-07-30T03:02:56.920Z,19.46
2022-07-30T03:05:26.315Z,19.43
2022-07-30T03:07:56.185Z,19.39
2022-07-30T03:10:27.395Z,19.34
2022-07-30T03:12:59.518Z,19.31
2022-07-30T03:15:29.850Z,19.26
2022-07-30T03:17:59.533Z,19.18
2022-07-30T03:20:31.953Z,19.10
2022-07-30T03:23:03.775Z,19.06
2022-07-30T03:25:34.059Z,19.04
2022-07-30T03:28:06.197Z,19.01
2022-07-30T03:30:35.711Z,18.96
2022-07-30T03:33:06.546Z,18.86
2022-07-30T03:35:35.666Z,18.85
2022-07-30T03:38:06.887Z,18.87
2022-07-30T03:40:35.869Z,18.91
2022-07-30T03:43:06.199Z,18.90
2022-07-30T03:45:55.847Z,18.89
2022-07-30T03:48:25.047Z,18.91
2022-07-30T03:50:55.028Z,18.93
2022-07-30T03:53:25.057Z,18.90
2022-07-30T03:55:54.783Z,18.89
2022-07-30T03:58:24.685Z,18.90
2022-07-30T04:00:53.249Z,18.91
2022-07-30T04:03:28.451Z,18.98
2022-07-30T04:05:57.282Z,19.00
2022-07-30T04:08:25.914Z,19.04
2022-07-30T04:10:54.484Z,19.07
2022-07-30T04:13:24.361Z,19.08
2022-07-30T04:16:38.757Z,19.14
2022-07-30T04:18:57.280Z,19.17
2022-07-30T04:21:27.958Z,19.22
2022-07-30T04:24:02.311Z,19.27
2022-07-30T04:26:36.077Z,19.33
2022-07-30T04:29:08.687Z,19.31
2022-07-30T04:31:40.619Z,19.31
2022-07-30T04:34:09.950Z,19.34
2022-07-30T04:36:38.421Z,19.35
2022-07-30T04:39:07.096Z,19.40
2022-07-30T04:41:48.439Z,19.40
2022-07-30T04:44:21.172Z,19.35
2022-07-30T04:46:49.802Z,19.37
2022-07-30T04:49:20.204Z,19.46
2022-07-30T04:51:50.884Z,19.54
2022-07-30T04:54:21.635Z,19.57
2022-07-30T04:56:53.587Z,19.57
2022-07-30T04:59:26.445Z,19.52
2022-07-30T05:01:58.665Z,19.53
2022-07-30T05:04:29.276Z,19.55
2022-07-30T05:06:58.942Z,19.54
2022-07-30T05:09:28.102Z,19.53
2022-07-30T05:11:59.413Z,19.52
2022-07-30T05:14:29.827Z,19.50
2022-07-30T05:16:58.899Z,19.47
2022-07-30T05:19:27.660Z,19.44
2022-07-30T05:21:56.148Z,19.44
2022-07-30T05:24:24.767Z,19.38
2022-07-30T05:26:53.389Z,19.35
2022-07-30T05:29:22.147Z,19.43
2022-07-30T05:31:53.816Z,19.50
2022-07-30T05:34:22.451Z,19.53
2022-07-30T05:36:51.098Z,19.55
2022-07-30T05:39:19.599Z,19.53
2022-07-30T05:41:48.145Z,19.51
2022-07-30T05:44:19.687Z,19.55
2022-07-30T05:46:50.887Z,19.53
2022-07-30T05:49:20.875Z,19.52
2022-07-30T05:51:50.494Z,19.58
2022-07-30T05:54:18.991Z,19.63
2022-07-30T05:56:48.047Z,19.71
2022-07-30T05:59:16.638Z,19.74
2022-07-30T06:01:45.173Z,19.74
2022-07-30T06:04:13.752Z,19.73
2022-07-30T06:06:43.617Z,19.75
2022-07-30T06:09:13.127Z,19.80
2022-07-30T06:11:41.608Z,19.88
2022-07-30T06:14:10.092Z,19.92
2022-07-30T06:16:38.628Z,19.97
2022-07-30T06:19:07.109Z,20.04
2022-07-30T06:22:05.910Z,20.09
2022-07-30T06:24:25.389Z,20.05
2022-07-30T06:26:57.782Z,20.10
2022-07-30T06:29:26.481Z,20.16
2022-07-30T06:31:55.093Z,20.19
2022-07-30T06:34:23.768Z,20.24
2022-07-30T06:36:52.316Z,20.24
2022-07-30T06:39:56.710Z,20.24
2022-07-30T06:42:10.704Z,20.21
2022-07-30T06:44:39.174Z,20.23
2022-07-30T06:47:08.892Z,20.27
2022-07-30T06:49:38.399Z,20.24
2022-07-30T06:52:07.417Z,20.28
2022-07-30T06:54:35.877Z,20.34
2022-07-30T06:57:04.670Z,20.39
2022-07-30T06:59:34.512Z,20.39
2022-07-30T07:02:23.113Z,20.49
2022-07-30T07:04:51.690Z,20.60
2022-07-30T07:07:40.331Z,20.64
2022-07-30T07:10:09.943Z,20.63
2022-07-30T07:12:38.508Z,20.59
2022-07-30T07:15:09.896Z,20.56
2022-07-30T07:17:38.351Z,20.56
2022-07-30T07:20:07.994Z,20.46
2022-07-30T07:22:36.408Z,20.39
2022-07-30T07:25:05.661Z,20.37
2022-07-30T07:27:37.464Z,20.37
2022-07-30T07:30:09.088Z,20.31
2022-07-30T07:32:37.802Z,20.30
2022-07-30T07:35:07.110Z,20.33
2022-07-30T07:37:35.910Z,20.37
2022-07-30T07:40:05.644Z,20.39
2022-07-30T07:42:34.148Z,20.36
2022-07-30T07:45:02.888Z,20.38
2022-07-30T07:47:33.054Z,20.49
2022-07-30T07:50:01.559Z,20.55
2022-07-30T07:52:30.068Z,20.60
2022-07-30T07:54:58.647Z,20.72
2022-07-30T07:57:27.838Z,20.79
2022-07-30T07:59:56.445Z,20.88
2022-07-30T08:02:25.959Z,20.95
2022-07-30T08:04:55.908Z,21.01
2022-07-30T08:07:24.524Z,21.02
2022-07-30T08:09:53.208Z,21.01
2022-07-30T08:12:21.936Z,21.04
2022-07-30T08:14:51.192Z,21.10
2022-07-30T08:17:19.856Z,21.14
2022-07-30T08:19:49.857Z,21.22
2022-07-30T08:22:19.774Z,21.34
2022-07-30T08:24:48.205Z,21.36
2022-07-30T08:27:16.708Z,21.39
2022-07-30T08:29:45.345Z,21.39
2022-07-30T08:32:13.999Z,21.33
2022-07-30T08:34:42.509Z,21.27
2022-07-30T08:37:11.355Z,21.30
2022-07-30T08:39:44.105Z,21.37
2022-07-30T08:42:14.689Z,21.48
2022-07-30T08:44:46.258Z,21.47
2022-07-30T08:47:18.450Z,21.46
2022-07-30T08:49:47.700Z,21.53
2022-07-30T08:52:16.742Z,21.58
2022-07-30T08:54:47.225Z,21.65
2022-07-30T08:57:16.672Z,21.70
2022-07-30T08:59:59.044Z,21.70
2022-07-30T09:02:31.662Z,21.70
2022-07-30T09:05:00.301Z,21.69
2022-07-30T09:07:28.933Z,21.69
2022-07-30T09:09:59.113Z,21.67
2022-07-30T09:12:37.836Z,21.72
2022-07-30T09:15:08.895Z,21.80
2022-07-30T09:17:55.289Z,21.91
2022-07-30T09:20:25.972Z,21.98
2022-07-30T09:22:56.136Z,22.11
2022-07-30T09:25:40.905Z,22.33
2022-07-30T09:28:16.102Z,22.56
2022-07-30T09:30:48.236Z,22.70
2022-07-30T09:33:18.913Z,22.75
2022-07-30T09:35:57.185Z,22.70
2022-07-30T09:38:26.284Z,22.64
2022-07-30T09:40:58.160Z,22.69
2022-07-30T09:43:28.147Z,22.79
2022-07-30T09:46:00.527Z,22.93
2022-07-30T09:48:29.807Z,22.98
2022-07-30T09:50:58.423Z,22.93
2022-07-30T09:53:28.603Z,22.93
2022-07-30T09:56:00.892Z,22.98
2022-07-30T09:58:45.566Z,23.13
2022-07-30T10:01:14.835Z,23.24
2022-07-30T10:03:44.461Z,23.20
2022-07-30T10:06:15.381Z,23.13
2022-07-30T10:08:46.956Z,23.13
2022-07-30T10:11:23.638Z,23.17
2022-07-30T10:13:55.942Z,23.25
2022-07-30T10:16:27.255Z,23.42
2022-07-30T10:19:00.125Z,23.42
2022-07-30T10:21:32.664Z,23.41
2022-07-30T10:24:06.845Z,23.55
2022-07-30T10:26:38.063Z,23.82
2022-07-30T10:29:07.026Z,23.98
2022-07-30T10:31:49.548Z,23.96
2022-07-30T10:34:23.624Z,23.92
2022-07-30T10:36:58.859Z,23.92
2022-07-30T10:39:34.775Z,24.00
2022-07-30T10:42:16.918Z,24.13
2022-07-30T10:45:02.530Z,24.25
2022-07-30T10:47:40.469Z,24.28
2022-07-30T10:50:15.795Z,24.31
2022-07-30T10:52:46.945Z,24.47
2022-07-30T10:55:16.274Z,24.60
2022-07-30T10:58:06.601Z,24.52
2022-07-30T11:00:38.343Z,24.58
2022-07-30T11:03:43.945Z,24.64
2022-07-30T11:06:28.659Z,24.72
2022-07-30T11:08:58.306Z,24.74
2022-07-30T11:12:01.366Z,24.84
2022-07-30T11:15:06.857Z,24.94
2022-07-30T11:18:12.089Z,25.11
2022-07-30T11:20:43.253Z,25.19
2022-07-30T11:23:39.998Z,25.15
2022-07-30T11:26:14.140Z,25.14
2022-07-30T11:28:45.230Z,25.18
2022-07-30T11:32:07.458Z,25.15
2022-07-30T11:34:31.298Z,24.99
2022-07-30T11:37:21.583Z,24.87
2022-07-30T11:40:13.931Z,24.77
2022-07-30T11:42:43.727Z,24.71
2022-07-30T11:45:29.475Z,24.63
2022-07-30T11:48:03.651Z,24.54
2022-07-30T11:50:34.209Z,24.63
2022-07-30T11:53:05.001Z,24.79
2022-07-30T11:55:36.987Z,25.00
2022-07-30T11:58:07.711Z,25.02
2022-07-30T12:00:39.788Z,24.94
2022-07-30T12:03:15.447Z,24.79
2022-07-30T12:05:44.822Z,24.72
2022-07-30T12:08:35.356Z,24.68
2022-07-30T12:11:02.880Z,24.66
2022-07-30T12:13:42.882Z,24.67
2022-07-30T12:16:15.917Z,24.71
2022-07-30T12:18:46.960Z,24.67
2022-07-30T12:21:16.867Z,24.60
2022-07-30T12:23:56.546Z,24.80
2022-07-30T12:26:27.182Z,25.14
2022-07-30T12:28:56.959Z,25.42
2022-07-30T12:31:25.625Z,25.61
2022-07-30T12:33:59.056Z,25.79
2022-07-30T12:36:30.946Z,25.97
2022-07-30T12:39:00.284Z,26.13
2022-07-30T12:41:46.352Z,26.25
2022-07-30T12:44:36.594Z,26.18
2022-07-30T12:47:06.530Z,26.11
2022-07-30T12:49:48.915Z,26.22
2022-07-30T12:52:28.187Z,26.24
2022-07-30T12:55:02.391Z,26.16
2022-07-30T12:57:58.024Z,25.97
2022-07-30T13:00:28.923Z,25.82
2022-07-30T13:02:58.343Z,25.73
2022-07-30T13:05:47.518Z,25.64
2022-07-30T13:08:16.135Z,25.57
2022-07-30T13:10:58.255Z,25.49
2022-07-30T13:13:27.907Z,25.42
2022-07-30T13:16:01.863Z,25.27
2022-07-30T13:18:31.547Z,25.14
2022-07-30T13:21:02.466Z,25.09
2022-07-30T13:23:31.032Z,25.00
2022-07-30T13:25:59.598Z,24.95
2022-07-30T13:28:29.831Z,24.94
2022-07-30T13:30:58.431Z,24.91
2022-07-30T13:33:27.023Z,24.83
2022-07-30T13:35:55.548Z,24.98
2022-07-30T13:38:25.460Z,25.21
2022-07-30T13:40:56.111Z,25.44
2022-07-30T13:43:26.664Z,25.61
2022-07-30T13:45:59.899Z,25.56
2022-07-30T13:48:28.638Z,25.34
2022-07-30T13:50:57.344Z,25.17
2022-07-30T13:53:27.283Z,25.01
2022-07-30T13:55:55.931Z,25.03
2022-07-30T13:58:24.422Z,25.27
2022-07-30T14:00:53.011Z,25.51
2022-07-30T14:03:21.574Z,25.67
2022-07-30T14:05:50.193Z,25.90
2022-07-30T14:08:18.692Z,26.08
2022-07-30T14:10:48.643Z,26.20
2022-07-30T14:13:20.956Z,26.31
2022-07-30T14:15:50.260Z,26.43
2022-07-30T14:18:18.884Z,26.49
2022-07-30T14:20:48.834Z,26.56
2022-07-30T14:23:18.099Z,26.58
2022-07-30T14:25:48.660Z,26.67
2022-07-30T14:28:17.392Z,26.78
2022-07-30T14:30:45.914Z,26.77
2022-07-30T14:33:14.399Z,26.80
2022-07-30T14:35:42.956Z,26.93
2022-07-30T14:38:11.459Z,27.06
2022-07-30T14:40:39.976Z,27.19
2022-07-30T14:43:09.949Z,27.22
2022-07-30T14:45:39.274Z,27.25
2022-07-30T14:48:07.950Z,27.22
2022-07-30T14:50:46.701Z,27.26
2022-07-30T14:53:24.899Z,27.32
2022-07-30T14:55:53.359Z,27.32
2022-07-30T14:58:23.620Z,27.39
2022-07-30T15:00:52.285Z,27.44
2022-07-30T15:03:22.180Z,27.46
2022-07-30T15:05:52.463Z,27.48
2022-07-30T15:08:21.202Z,27.45
2022-07-30T15:10:49.887Z,27.46
2022-07-30T15:13:18.572Z,27.48
2022-07-30T15:15:50.410Z,27.43
2022-07-30T15:18:19.116Z,27.38
2022-07-30T15:20:47.875Z,27.45
2022-07-30T15:23:16.370Z,27.23
2022-07-30T15:25:45.869Z,26.95
2022-07-30T15:28:14.425Z,26.64
2022-07-30T15:30:43.196Z,26.48
2022-07-30T15:33:13.171Z,26.58
2022-07-30T15:35:41.579Z,26.81
2022-07-30T15:38:10.053Z,26.96
2022-07-30T15:40:38.612Z,27.09
2022-07-30T15:43:10.108Z,27.14
2022-07-30T15:45:56.002Z,27.18
2022-07-30T15:48:27.644Z,27.25
2022-07-30T15:51:02.839Z,27.28
2022-07-30T15:53:32.195Z,27.23
2022-07-30T15:56:01.512Z,27.26
2022-07-30T15:58:30.128Z,27.25
2022-07-30T16:00:58.610Z,27.13
2022-07-30T16:03:28.544Z,26.97
2022-07-30T16:05:57.047Z,26.91
2022-07-30T16:08:25.638Z,26.86
2022-07-30T16:10:54.095Z,26.88
2022-07-30T16:13:22.708Z,26.93
2022-07-30T16:15:51.322Z,26.96
2022-07-30T16:18:19.816Z,26.96
2022-07-30T16:20:49.875Z,26.80
2022-07-30T16:23:21.584Z,26.59
2022-07-30T16:25:50.460Z,26.40
2022-07-30T16:28:18.939Z,26.37
2022-07-30T16:30:51.343Z,26.28
2022-07-30T16:33:20.610Z,26.25
2022-07-30T16:35:50.864Z,26.35
2022-07-30T16:38:20.411Z,26.47
2022-07-30T16:40:48.931Z,26.50
2022-07-30T16:43:19.820Z,26.42
2022-07-30T16:45:48.817Z,26.28
2022-07-30T16:48:17.380Z,26.21
2022-07-30T16:50:45.891Z,26.05
2022-07-30T16:53:16.264Z,25.87
2022-07-30T16:55:45.589Z,25.84
2022-07-30T16:58:14.676Z,25.93
2022-07-30T17:00:43.513Z,26.04
2022-07-30T17:03:12.150Z,26.06
2022-07-30T17:05:49.035Z,26.14
2022-07-30T17:08:19.242Z,26.12
2022-07-30T17:10:53.833Z,26.15
2022-07-30T17:13:22.980Z,26.16
2022-07-30T17:15:51.589Z,26.08
2022-07-30T17:18:20.332Z,25.91
2022-07-30T17:20:49.037Z,25.73
2022-07-30T17:23:18.975Z,25.54
2022-07-30T17:25:47.490Z,25.40
2022-07-30T17:28:18.088Z,25.24
2022-07-30T17:30:47.127Z,25.13
2022-07-30T17:33:15.593Z,24.98
2022-07-30T17:35:44.215Z,24.85
2022-07-30T17:38:12.742Z,24.74
2022-07-30T17:40:42.629Z,24.65
2022-07-30T17:43:13.881Z,24.52
2022-07-30T17:45:43.627Z,24.40
2022-07-30T17:48:12.191Z,24.32
2022-07-30T17:50:40.782Z,24.27
2022-07-30T17:53:09.823Z,24.21
2022-07-30T17:55:38.356Z,24.16
2022-07-30T17:58:08.307Z,24.03
2022-07-30T18:00:36.923Z,23.93
2022-07-30T18:03:05.502Z,23.85
2022-07-30T18:05:34.138Z,23.81
2022-07-30T18:08:02.691Z,23.79
2022-07-30T18:10:31.331Z,23.76
2022-07-30T18:12:59.815Z,23.73
2022-07-30T18:15:50.005Z,23.76
2022-07-30T18:18:18.568Z,23.81
2022-07-30T18:20:48.576Z,23.89
2022-07-30T18:23:19.208Z,23.94
2022-07-30T18:25:53.181Z,23.96
2022-07-30T18:28:23.106Z,23.93
2022-07-30T18:30:55.054Z,23.85
2022-07-30T18:33:23.615Z,23.73
2022-07-30T18:35:52.347Z,23.62
2022-07-30T18:38:20.888Z,23.50
2022-07-30T18:40:58.579Z,23.46
2022-07-30T18:43:27.971Z,23.39
2022-07-30T18:46:00.292Z,23.35
2022-07-30T18:48:29.306Z,23.35
2022-07-30T18:50:57.889Z,23.26
2022-07-30T18:53:26.432Z,23.13
2022-07-30T18:55:55.065Z,23.07
2022-07-30T18:58:24.047Z,23.00
2022-07-30T19:00:53.602Z,23.02
2022-07-30T19:03:25.389Z,22.83
2022-07-30T19:05:54.003Z,22.51
2022-07-30T19:08:22.765Z,22.30
2022-07-30T19:10:51.607Z,22.11
2022-07-30T19:13:23.404Z,21.93
2022-07-30T19:15:52.276Z,21.86
2022-07-30T19:18:21.585Z,21.79
2022-07-30T19:20:51.810Z,21.87
2022-07-30T19:23:22.087Z,21.76
2022-07-30T19:25:50.552Z,21.59
2022-07-30T19:28:19.253Z,21.40
2022-07-30T19:30:48.189Z,21.23
2022-07-30T19:33:16.745Z,20.97
2022-07-30T19:35:45.811Z,20.62
2022-07-30T19:38:22.017Z,19.93
2022-07-30T19:40:53.073Z,19.72
2022-07-30T19:43:24.044Z,19.54
2022-07-30T19:45:53.384Z,19.42
2022-07-30T19:48:29.621Z,19.32
2022-07-30T19:50:59.276Z,19.22
2022-07-30T19:53:34.100Z,18.99
2022-07-30T19:56:10.649Z,18.64
2022-07-30T19:58:40.514Z,18.42
2022-07-30T20:01:09.815Z,18.29
2022-07-30T20:03:39.074Z,18.29
2022-07-30T20:06:08.816Z,18.28
2022-07-30T20:08:45.195Z,18.21
2022-07-30T20:11:21.219Z,18.21
2022-07-30T20:14:03.208Z,18.15
2022-07-30T20:16:31.910Z,18.13
2022-07-30T20:19:00.516Z,18.10
2022-07-30T20:21:56.826Z,18.03
2022-07-30T20:24:23.641Z,18.05
2022-07-30T20:26:52.252Z,18.06
2022-07-30T20:29:20.907Z,17.98
2022-07-30T20:31:50.141Z,18.01
2022-07-30T20:34:20.783Z,18.06
2022-07-30T20:36:52.961Z,17.93
2022-07-30T20:39:24.050Z,17.93
2022-07-30T20:42:07.891Z,17.93
2022-07-30T20:44:37.939Z,17.96
2022-07-30T20:47:08.419Z,17.97
2022-07-30T20:49:37.143Z,17.92
2022-07-30T20:52:07.358Z,17.88
2022-07-30T20:54:37.759Z,17.84
2022-07-30T20:57:15.620Z,17.84
2022-07-30T20:59:44.557Z,17.90
2022-07-30T21:02:15.230Z,17.94
2022-07-30T21:04:46.341Z,17.94
2022-07-30T21:07:15.091Z,17.97
2022-07-30T21:09:52.588Z,18.05
2022-07-30T21:12:32.721Z,18.12
2022-07-30T21:15:01.857Z,18.13
2022-07-30T21:17:30.362Z,18.16
2022-07-30T21:19:58.918Z,18.22
2022-07-30T21:22:29.668Z,18.30
2022-07-30T21:24:59.893Z,18.35
2022-07-30T21:27:29.910Z,18.43
2022-07-30T21:29:58.600Z,18.47
2022-07-30T21:32:28.546Z,18.46
2022-07-30T21:34:57.203Z,18.48
2022-07-30T21:37:36.665Z,18.47
2022-07-30T21:40:08.112Z,18.43
2022-07-30T21:42:37.379Z,18.38
2022-07-30T21:45:17.309Z,18.32
2022-07-30T21:47:48.033Z,18.33
2022-07-30T21:50:16.707Z,18.38
2022-07-30T21:52:45.610Z,18.50
2022-07-30T21:55:15.518Z,18.61
2022-07-30T21:57:44.055Z,18.69
2022-07-30T22:00:21.868Z,18.78
2022-07-30T22:02:52.892Z,18.88
2022-07-30T22:05:23.858Z,18.93
2022-07-30T22:08:08.627Z,18.99
2022-07-30T22:10:41.457Z,18.97
2022-07-30T22:13:10.351Z,18.99
2022-07-30T22:15:38.988Z,18.95
2022-07-30T22:18:08.005Z,18.88
2022-07-30T22:20:37.030Z,18.82
2022-07-30T22:23:08.535Z,18.75
2022-07-30T22:25:39.789Z,18.63
2022-07-30T22:28:14.582Z,18.56
2022-07-30T22:30:45.918Z,18.58
2022-07-30T22:33:16.554Z,18.59
2022-07-30T22:35:49.786Z,18.59
2022-07-30T22:38:19.786Z,18.57
2022-07-30T22:40:49.471Z,18.57
2022-07-30T22:43:19.499Z,18.52
2022-07-30T22:45:50.006Z,18.46
2022-07-30T22:48:20.747Z,18.42
2022-07-30T22:50:55.555Z,18.39
2022-07-30T22:54:11.308Z,18.36
2022-07-30T22:56:14.101Z,18.32
2022-07-30T22:58:48.731Z,18.28
2022-07-30T23:01:18.568Z,18.24
2022-07-30T23:03:48.128Z,18.23
2022-07-30T23:06:16.762Z,18.28
2022-07-30T23:08:49.289Z,18.32
2022-07-30T23:11:18.154Z,18.36
2022-07-30T23:13:48.103Z,18.37
2022-07-30T23:16:16.594Z,18.36
2022-07-30T23:18:45.268Z,18.32
2022-07-30T23:21:14.162Z,18.32
2022-07-30T23:23:42.622Z,18.23
2022-07-30T23:26:11.133Z,18.18
2022-07-30T23:28:39.647Z,18.10
2022-07-30T23:31:09.822Z,18.10
2022-07-30T23:33:38.309Z,18.07
2022-07-30T23:36:08.074Z,18.05
2022-07-30T23:38:37.105Z,18.06
2022-07-30T23:41:06.813Z,18.03
2022-07-30T23:43:35.907Z,18.01
2022-07-30T23:46:05.029Z,17.98
2022-07-30T23:48:39.681Z,17.92
2022-07-30T23:51:08.666Z,17.84
2022-07-30T23:53:37.284Z,17.77
2022-07-30T23:56:06.123Z,17.81
2022-07-30T23:58:34.774Z,17.81
